Date,TemperatureHighF,TemperatureAvgF,TemperatureLowF,DewpointHighF,DewpointAvgF,DewpointLowF,HumidityHigh,HumidityAvg,HumidityLow,PressureMaxIn,PressureMinIn,WindSpeedMaxMPH,WindSpeedAvgMPH,GustSpeedMaxMPH,PrecipitationSumIn
2013-7-1,78.4,76.7,72.8,76.0,74.4,71.0,95,92,89,30.07,29.87,20,10,34,0.39
2013-7-2,81.9,79.0,74.9,78.0,75.9,73.0,94,90,88,30.21,30.06,15,7,22,0.08
2013-7-3,82.3,79.8,76.2,79.0,76.7,73.0,94,90,87,30.27,30.18,18,6,25,0.02
2013-7-4,83.7,80.7,78.5,78.0,76.2,75.0,92,86,79,30.29,30.23,11,6,17,0.00
2013-7-5,83.4,80.9,79.0,78.0,76.5,75.0,92,86,80,30.30,30.21,12,6,18,0.00
2013-7-6,83.2,80.9,79.3,76.0,75.1,74.0,88,82,78,30.27,30.17,12,5,16,0.00
2013-7-7,83.2,80.4,77.2,75.0,73.9,72.0,87,80,73,30.21,30.11,11,5,17,0.00
2013-7-8,82.6,79.7,77.0,76.0,74.6,73.0,90,84,78,30.20,30.12,16,6,19,0.00
2013-7-9,83.6,79.8,76.0,78.0,75.4,73.0,93,86,76,30.20,30.11,16,5,24,0.00
2013-7-10,83.9,80.6,78.0,77.0,75.8,75.0,91,85,78,30.14,30.01,17,7,22,0.00
2013-7-11,82.0,79.3,76.6,77.0,75.4,73.0,93,88,82,30.02,29.90,18,8,27,0.03
2013-7-12,79.7,76.1,72.7,77.0,73.6,71.0,95,92,88,29.99,29.89,14,4,21,0.86
2013-7-13,82.7,78.6,73.8,77.0,74.7,72.0,96,88,76,30.18,29.98,23,7,26,0.49
2013-7-14,84.3,81.1,77.7,78.0,76.6,74.0,90,86,79,30.28,30.18,13,6,17,0.10
2013-7-15,84.5,81.0,76.4,78.0,76.4,75.0,95,85,77,30.29,30.24,11,4,14,0.00
2013-7-16,87.0,81.6,75.3,77.0,75.6,74.0,95,82,66,30.27,30.17,13,4,15,0.00
2013-7-17,88.0,81.8,76.8,79.0,75.9,73.0,90,82,71,30.19,30.10,7,3,12,0.00
2013-7-18,86.3,81.7,76.4,78.0,75.5,73.0,93,81,67,30.14,30.07,12,4,18,0.00
2013-7-19,84.6,81.8,78.7,78.0,76.8,75.0,89,84,80,30.14,30.02,18,8,23,0.00
2013-7-20,84.1,81.3,78.6,78.0,75.9,74.0,90,83,75,30.07,29.98,21,10,32,0.00
2013-7-21,81.1,79.0,77.4,77.0,75.1,73.0,93,88,80,30.03,29.94,13,7,20,0.00
2013-7-22,82.2,78.9,76.2,77.0,75.8,74.0,95,90,81,29.97,29.85,18,6,26,0.00
2013-7-23,80.3,78.1,75.9,76.0,75.0,74.0,94,90,84,29.89,29.75,16,7,21,0.00
2013-7-24,79.3,77.1,76.2,75.0,74.6,73.0,94,92,84,29.79,29.74,8,4,11,0.00